sensor_id;sensor_type;location;lat;lon;timestamp;pressure;altitude;pressure_sealevel;temperature;humidity
50652;BME280;66928;52.086;5.240;2023-05-22T05:40:57;101320.0;;;16.78;88.85
50652;BME280;66928;52.086;5.240;2023-05-22T05:42:33;101322.0;;;16.86;88.86
50652;BME280;66928;52.086;5.240;2023-05-22T05:45:45;101325.0;;;16.9;88.62
50652;BME280;66928;52.086;5.240;2023-05-22T05:47:22;101318.0;;;16.84;89.2
50652;BME280;66928;52.086;5.240;2023-05-22T05:48:58;101314.0;;;16.75;89.49
50652;BME280;66928;52.086;5.240;2023-05-22T05:52:10;101311.0;;;17.18;87.86
50652;BME280;66928;52.086;5.240;2023-05-22T05:53:46;101313.0;;;17.05;88.91
50652;BME280;66928;52.086;5.240;2023-05-22T05:55:23;101308.0;;;16.66;90.26
50652;BME280;66928;52.086;5.240;2023-05-22T05:58:34;101305.0;;;16.96;89.93
50652;BME280;66928;52.086;5.240;2023-05-22T06:00:11;101311.0;;;17.27;88.26
50652;BME280;66928;52.086;5.240;2023-05-22T06:01:47;101318.0;;;17.39;87.76
50652;BME280;66928;52.086;5.240;2023-05-22T06:05:00;101317.0;;;17.38;87.97
50652;BME280;66928;52.086;5.240;2023-05-22T06:06:36;101306.0;;;17.5;87.27
50652;BME280;66928;52.086;5.240;2023-05-22T06:08:12;101308.0;;;17.7;86.22
50652;BME280;66928;52.086;5.240;2023-05-22T06:09:48;101311.0;;;17.79;85.92
50652;BME280;66928;52.086;5.240;2023-05-22T06:13:01;101316.0;;;17.66;86.83
50652;BME280;66928;52.086;5.240;2023-05-22T06:14:37;101312.0;;;17.61;86.73
50652;BME280;66928;52.086;5.240;2023-05-22T06:16:13;101310.0;;;17.36;87.53
50652;BME280;66928;52.086;5.240;2023-05-22T06:19:25;101308.0;;;17.25;89.83
50652;BME280;66928;52.086;5.240;2023-05-22T06:21:02;101305.0;;;17.59;87.92
50652;BME280;66928;52.086;5.240;2023-05-22T06:22:38;101311.0;;;17.78;86.62
50652;BME280;66928;52.086;5.240;2023-05-22T06:25:50;101316.0;;;17.86;86.55
50652;BME280;66928;52.086;5.240;2023-05-22T06:27:26;101320.0;;;17.98;85.6
50652;BME280;66928;52.086;5.240;2023-05-22T06:29:02;101320.0;;;17.91;86.68
50652;BME280;66928;52.086;5.240;2023-05-22T06:32:15;101319.0;;;17.91;87.0
50652;BME280;66928;52.086;5.240;2023-05-22T06:33:51;101317.0;;;17.97;86.4
50652;BME280;66928;52.086;5.240;2023-05-22T06:35:27;101318.0;;;17.77;87.6
50652;BME280;66928;52.086;5.240;2023-05-22T06:37:04;101321.0;;;17.68;88.3
50652;BME280;66928;52.086;5.240;2023-05-22T06:40:16;101324.0;;;17.95;87.98
50652;BME280;66928;52.086;5.240;2023-05-22T06:41:52;101322.0;;;18.07;87.43
50652;BME280;66928;52.086;5.240;2023-05-22T06:43:29;101326.0;;;18.2;86.99
50652;BME280;66928;52.086;5.240;2023-05-22T06:46:43;101333.0;;;18.3;86.52
50652;BME280;66928;52.086;5.240;2023-05-22T06:48:19;101332.0;;;18.36;86.44
50652;BME280;66928;52.086;5.240;2023-05-22T06:49:56;101330.0;;;18.34;86.29
50652;BME280;66928;52.086;5.240;2023-05-22T06:53:08;101331.0;;;18.46;86.19
50652;BME280;66928;52.086;5.240;2023-05-22T06:54:44;101332.0;;;18.48;86.21
50652;BME280;66928;52.086;5.240;2023-05-22T06:56:20;101336.0;;;18.52;86.16
50652;BME280;66928;52.086;5.240;2023-05-22T06:57:57;101337.0;;;18.61;85.86
50652;BME280;66928;52.086;5.240;2023-05-22T07:01:09;101334.0;;;18.63;85.93
50652;BME280;66928;52.086;5.240;2023-05-22T07:02:45;101340.0;;;18.5;86.59
50652;BME280;66928;52.086;5.240;2023-05-22T07:04:21;101341.0;;;18.68;85.59
50652;BME280;66928;52.086;5.240;2023-05-22T07:07:34;101343.0;;;18.84;85.78
50652;BME280;66928;52.086;5.240;2023-05-22T07:09:10;101345.0;;;18.77;85.55
50652;BME280;66928;52.086;5.240;2023-05-22T07:10:46;101349.0;;;18.95;85.29
50652;BME280;66928;52.086;5.240;2023-05-22T07:13:59;101355.0;;;18.68;86.36
50652;BME280;66928;52.086;5.240;2023-05-22T07:15:35;101351.0;;;18.93;85.58
50652;BME280;66928;52.086;5.240;2023-05-22T07:17:12;101355.0;;;18.93;85.38
50652;BME280;66928;52.086;5.240;2023-05-22T07:18:48;101351.0;;;19.04;84.87
50652;BME280;66928;52.086;5.240;2023-05-22T07:22:00;101352.0;;;19.16;84.73
50652;BME280;66928;52.086;5.240;2023-05-22T07:23:36;101350.0;;;18.86;86.21
50652;BME280;66928;52.086;5.240;2023-05-22T07:25:12;101351.0;;;19.16;85.28
50652;BME280;66928;52.086;5.240;2023-05-22T07:28:25;101355.0;;;19.25;84.31
50652;BME280;66928;52.086;5.240;2023-05-22T07:30:01;101360.0;;;19.27;84.69
50652;BME280;66928;52.086;5.240;2023-05-22T07:31:37;101350.0;;;19.38;84.45
50652;BME280;66928;52.086;5.240;2023-05-22T07:34:49;101350.0;;;19.55;83.57
50652;BME280;66928;52.086;5.240;2023-05-22T07:36:26;101350.0;;;19.36;84.81
50652;BME280;66928;52.086;5.240;2023-05-22T07:38:02;101351.0;;;19.5;84.65
50652;BME280;66928;52.086;5.240;2023-05-22T07:41:14;101349.0;;;19.63;84.19
50652;BME280;66928;52.086;5.240;2023-05-22T07:42:50;101351.0;;;19.98;82.43
50652;BME280;66928;52.086;5.240;2023-05-22T07:44:26;101351.0;;;19.77;82.95
50652;BME280;66928;52.086;5.240;2023-05-22T07:46:03;101352.0;;;19.86;82.67
50652;BME280;66928;52.086;5.240;2023-05-22T07:49:15;101346.0;;;20.16;81.77
50652;BME280;66928;52.086;5.240;2023-05-22T07:50:51;101349.0;;;19.87;83.48
50652;BME280;66928;52.086;5.240;2023-05-22T07:52:27;101345.0;;;20.18;82.0
50652;BME280;66928;52.086;5.240;2023-05-22T07:55:40;101345.0;;;19.98;82.81
50652;BME280;66928;52.086;5.240;2023-05-22T07:57:16;101343.0;;;19.86;83.0
50652;BME280;66928;52.086;5.240;2023-05-22T07:58:52;101349.0;;;19.64;85.04
50652;BME280;66928;52.086;5.240;2023-05-22T08:02:05;101350.0;;;19.79;84.44
50652;BME280;66928;52.086;5.240;2023-05-22T08:03:41;101352.0;;;19.77;84.92
50652;BME280;66928;52.086;5.240;2023-05-22T08:05:17;101356.0;;;19.73;85.44
50652;BME280;66928;52.086;5.240;2023-05-22T08:10:11;101357.0;;;20.0;83.88
50652;BME280;66928;52.086;5.240;2023-05-22T08:11:48;101359.0;;;20.28;82.7
50652;BME280;66928;52.086;5.240;2023-05-22T08:13:25;101362.0;;;20.51;81.83
50652;BME280;66928;52.086;5.240;2023-05-22T08:16:37;101365.0;;;20.58;81.62
50652;BME280;66928;52.086;5.240;2023-05-22T08:18:13;101366.0;;;20.63;81.19
50652;BME280;66928;52.086;5.240;2023-05-22T08:19:49;101367.0;;;20.68;80.7
50652;BME280;66928;52.086;5.240;2023-05-22T08:23:02;101363.0;;;20.63;80.99
50652;BME280;66928;52.086;5.240;2023-05-22T08:24:38;101364.0;;;20.47;82.23
50652;BME280;66928;52.086;5.240;2023-05-22T08:26:14;101362.0;;;20.82;80.74
50652;BME280;66928;52.086;5.240;2023-05-22T08:27:50;101361.0;;;21.06;79.77
50652;BME280;66928;52.086;5.240;2023-05-22T08:31:04;101365.0;;;20.84;79.95
50652;BME280;66928;52.086;5.240;2023-05-22T08:32:40;101359.0;;;21.19;78.8
50652;BME280;66928;52.086;5.240;2023-05-22T08:34:16;101364.0;;;20.97;79.52
50652;BME280;66928;52.086;5.240;2023-05-22T08:37:28;101357.0;;;21.35;77.84
50652;BME280;66928;52.086;5.240;2023-05-22T08:39:05;101351.0;;;21.55;77.02
50652;BME280;66928;52.086;5.240;2023-05-22T08:40:44;101349.0;;;21.73;76.02
50652;BME280;66928;52.086;5.240;2023-05-22T08:43:59;101347.0;;;21.98;74.92
50652;BME280;66928;52.086;5.240;2023-05-22T08:45:35;101347.0;;;21.55;76.36
50652;BME280;66928;52.086;5.240;2023-05-22T08:47:12;101348.0;;;21.71;73.97
50652;BME280;66928;52.086;5.240;2023-05-22T08:48:48;101345.0;;;21.71;72.87
50652;BME280;66928;52.086;5.240;2023-05-22T08:52:06;101343.0;;;21.97;72.88
50652;BME280;66928;52.086;5.240;2023-05-22T08:53:46;101338.0;;;22.1;72.08
50652;BME280;66928;52.086;5.240;2023-05-22T08:55:27;101337.0;;;22.25;72.03
50652;BME280;66928;52.086;5.240;2023-05-22T08:58:40;101343.0;;;22.03;71.16
50652;BME280;66928;52.086;5.240;2023-05-22T09:00:18;101341.0;;;22.03;67.25
50652;BME280;66928;52.086;5.240;2023-05-22T09:01:56;101336.0;;;22.09;68.19
50652;BME280;66928;52.086;5.240;2023-05-22T09:03:34;101341.0;;;22.15;67.84
50652;BME280;66928;52.086;5.240;2023-05-22T09:06:47;101337.0;;;22.06;67.58
50652;BME280;66928;52.086;5.240;2023-05-22T09:08:23;101339.0;;;22.53;66.77
50652;BME280;66928;52.086;5.240;2023-05-22T09:09:59;101335.0;;;22.53;65.81
50652;BME280;66928;52.086;5.240;2023-05-22T09:13:23;101335.0;;;22.56;66.28
50652;BME280;66928;52.086;5.240;2023-05-22T09:15:07;101330.0;;;22.89;65.35
50652;BME280;66928;52.086;5.240;2023-05-22T09:16:44;101330.0;;;22.92;64.73
50652;BME280;66928;52.086;5.240;2023-05-22T09:18:24;101330.0;;;22.82;63.29
50652;BME280;66928;52.086;5.240;2023-05-22T09:21:40;101328.0;;;22.93;63.52
50652;BME280;66928;52.086;5.240;2023-05-22T09:23:15;101328.0;;;22.9;63.37
50652;BME280;66928;52.086;5.240;2023-05-22T09:24:52;101330.0;;;22.9;63.33
50652;BME280;66928;52.086;5.240;2023-05-22T09:26:28;101325.0;;;22.83;63.63
50652;BME280;66928;52.086;5.240;2023-05-22T09:29:49;101327.0;;;22.8;63.48
50652;BME280;66928;52.086;5.240;2023-05-22T09:31:27;101326.0;;;22.81;63.86
50652;BME280;66928;52.086;5.240;2023-05-22T09:33:04;101323.0;;;22.8;64.08
50652;BME280;66928;52.086;5.240;2023-05-22T09:36:16;101320.0;;;22.92;63.49
50652;BME280;66928;52.086;5.240;2023-05-22T09:37:53;101323.0;;;23.15;63.12
50652;BME280;66928;52.086;5.240;2023-05-22T09:39:37;101323.0;;;23.03;61.36
50652;BME280;66928;52.086;5.240;2023-05-22T09:41:19;101321.0;;;23.11;62.05
50652;BME280;66928;52.086;5.240;2023-05-22T09:44:31;101321.0;;;23.23;61.49
50652;BME280;66928;52.086;5.240;2023-05-22T09:46:07;101324.0;;;23.2;62.72
50652;BME280;66928;52.086;5.240;2023-05-22T09:47:47;101320.0;;;23.5;62.2
50652;BME280;66928;52.086;5.240;2023-05-22T09:49:24;101318.0;;;23.23;62.82
50652;BME280;66928;52.086;5.240;2023-05-22T09:52:37;101318.0;;;23.63;61.92
50652;BME280;66928;52.086;5.240;2023-05-22T09:54:14;101317.0;;;23.54;62.29
50652;BME280;66928;52.086;5.240;2023-05-22T09:55:51;101318.0;;;23.87;60.33
50652;BME280;66928;52.086;5.240;2023-05-22T09:59:08;101314.0;;;24.06;59.6
50652;BME280;66928;52.086;5.240;2023-05-22T10:00:48;101314.0;;;24.02;58.64
50652;BME280;66928;52.086;5.240;2023-05-22T10:02:26;101317.0;;;23.86;58.53
50652;BME280;66928;52.086;5.240;2023-05-22T10:04:03;101315.0;;;24.04;58.56
50652;BME280;66928;52.086;5.240;2023-05-22T10:07:29;101313.0;;;24.1;58.44
50652;BME280;66928;52.086;5.240;2023-05-22T10:09:14;101313.0;;;24.23;58.58
50652;BME280;66928;52.086;5.240;2023-05-22T10:10:52;101309.0;;;24.43;57.78
50652;BME280;66928;52.086;5.240;2023-05-22T10:12:30;101309.0;;;24.29;57.35
50652;BME280;66928;52.086;5.240;2023-05-22T10:15:46;101306.0;;;24.44;56.03
50652;BME280;66928;52.086;5.240;2023-05-22T10:17:23;101310.0;;;24.41;57.78
50652;BME280;66928;52.086;5.240;2023-05-22T10:19:00;101309.0;;;24.59;58.1
50652;BME280;66928;52.086;5.240;2023-05-22T10:22:13;101309.0;;;24.54;58.38
50652;BME280;66928;52.086;5.240;2023-05-22T10:23:51;101308.0;;;24.48;59.1
50652;BME280;66928;52.086;5.240;2023-05-22T10:25:30;101316.0;;;24.28;58.9
50652;BME280;66928;52.086;5.240;2023-05-22T10:27:06;101307.0;;;24.34;58.2
50652;BME280;66928;52.086;5.240;2023-05-22T10:30:33;101309.0;;;24.19;59.41
50652;BME280;66928;52.086;5.240;2023-05-22T10:32:15;101307.0;;;24.28;58.91
50652;BME280;66928;52.086;5.240;2023-05-22T10:33:58;101305.0;;;24.31;57.83
50652;BME280;66928;52.086;5.240;2023-05-22T10:35:41;101303.0;;;24.36;57.26
50652;BME280;66928;52.086;5.240;2023-05-22T10:39:34;101305.0;;;24.31;57.39
50652;BME280;66928;52.086;5.240;2023-05-22T10:41:16;101300.0;;;24.16;57.82
50652;BME280;66928;52.086;5.240;2023-05-22T10:42:57;101298.0;;;24.54;57.05
50652;BME280;66928;52.086;5.240;2023-05-22T10:44:34;101301.0;;;24.43;58.28
50652;BME280;66928;52.086;5.240;2023-05-22T10:46:11;101302.0;;;24.48;58.62
50652;BME280;66928;52.086;5.240;2023-05-22T10:49:23;101305.0;;;24.59;58.58
50652;BME280;66928;52.086;5.240;2023-05-22T10:51:00;101305.0;;;24.52;58.61
50652;BME280;66928;52.086;5.240;2023-05-22T10:52:36;101305.0;;;24.31;59.01
50652;BME280;66928;52.086;5.240;2023-05-22T10:55:50;101307.0;;;24.2;59.13
50652;BME280;66928;52.086;5.240;2023-05-22T10:57:31;101305.0;;;23.71;61.86
50652;BME280;66928;52.086;5.240;2023-05-22T10:59:07;101312.0;;;23.98;61.16
50652;BME280;66928;52.086;5.240;2023-05-22T11:00:44;101301.0;;;24.15;60.33
50652;BME280;66928;52.086;5.240;2023-05-22T11:04:10;101300.0;;;24.26;60.14
50652;BME280;66928;52.086;5.240;2023-05-22T11:05:51;101302.0;;;24.26;59.83
50652;BME280;66928;52.086;5.240;2023-05-22T11:07:37;101301.0;;;24.14;60.44
50652;BME280;66928;52.086;5.240;2023-05-22T11:09:17;101295.0;;;24.3;60.47
50652;BME280;66928;52.086;5.240;2023-05-22T11:12:32;101297.0;;;24.75;58.88
50652;BME280;66928;52.086;5.240;2023-05-22T11:14:09;101301.0;;;24.26;60.11
50652;BME280;66928;52.086;5.240;2023-05-22T11:15:47;101300.0;;;24.15;59.86
50652;BME280;66928;52.086;5.240;2023-05-22T11:17:25;101293.0;;;24.14;60.4
50652;BME280;66928;52.086;5.240;2023-05-22T11:20:41;101295.0;;;24.28;60.07
50652;BME280;66928;52.086;5.240;2023-05-22T11:22:17;101290.0;;;24.34;59.81
50652;BME280;66928;52.086;5.240;2023-05-22T11:23:53;101286.0;;;24.27;59.8
50652;BME280;66928;52.086;5.240;2023-05-22T11:27:09;101284.0;;;24.56;59.35
50652;BME280;66928;52.086;5.240;2023-05-22T11:28:48;101287.0;;;24.73;59.02
50652;BME280;66928;52.086;5.240;2023-05-22T11:30:26;101287.0;;;24.56;56.39
50652;BME280;66928;52.086;5.240;2023-05-22T11:32:02;101288.0;;;24.54;56.81
50652;BME280;66928;52.086;5.240;2023-05-22T11:35:16;101287.0;;;24.51;57.1
50652;BME280;66928;52.086;5.240;2023-05-22T11:36:56;101283.0;;;24.55;57.16
50652;BME280;66928;52.086;5.240;2023-05-22T11:38:33;101284.0;;;24.51;58.18
50652;BME280;66928;52.086;5.240;2023-05-22T11:41:49;101283.0;;;24.6;58.46
50652;BME280;66928;52.086;5.240;2023-05-22T11:43:27;101276.0;;;24.34;59.3
50652;BME280;66928;52.086;5.240;2023-05-22T11:45:05;101276.0;;;24.35;59.71
50652;BME280;66928;52.086;5.240;2023-05-22T11:46:41;101275.0;;;24.35;59.19
50652;BME280;66928;52.086;5.240;2023-05-22T11:49:55;101274.0;;;24.14;60.59
50652;BME280;66928;52.086;5.240;2023-05-22T11:51:32;101277.0;;;24.54;59.41
50652;BME280;66928;52.086;5.240;2023-05-22T11:53:09;101281.0;;;24.67;58.07
50652;BME280;66928;52.086;5.240;2023-05-22T11:56:21;101268.0;;;25.06;55.57
50652;BME280;66928;52.086;5.240;2023-05-22T11:57:57;101272.0;;;24.77;56.24
50652;BME280;66928;52.086;5.240;2023-05-22T11:59:33;101266.0;;;24.97;57.62
50652;BME280;66928;52.086;5.240;2023-05-22T12:02:46;101273.0;;;25.03;57.88
50652;BME280;66928;52.086;5.240;2023-05-22T12:04:22;101268.0;;;25.05;58.09
50652;BME280;66928;52.086;5.240;2023-05-22T12:06:00;101278.0;;;24.66;58.62
50652;BME280;66928;52.086;5.240;2023-05-22T12:07:36;101273.0;;;25.09;57.72
50652;BME280;66928;52.086;5.240;2023-05-22T12:10:49;101266.0;;;25.38;57.51
50652;BME280;66928;52.086;5.240;2023-05-22T12:12:26;101267.0;;;25.04;58.35
50652;BME280;66928;52.086;5.240;2023-05-22T12:14:03;101272.0;;;25.32;56.79
50652;BME280;66928;52.086;5.240;2023-05-22T12:17:16;101270.0;;;24.95;57.24
50652;BME280;66928;52.086;5.240;2023-05-22T12:18:53;101270.0;;;25.14;57.13
50652;BME280;66928;52.086;5.240;2023-05-22T12:20:28;101268.0;;;25.33;56.68
50652;BME280;66928;52.086;5.240;2023-05-22T12:23:49;101267.0;;;25.06;57.16
50652;BME280;66928;52.086;5.240;2023-05-22T12:25:32;101277.0;;;25.07;56.37
50652;BME280;66928;52.086;5.240;2023-05-22T12:27:11;101274.0;;;24.8;57.15
50652;BME280;66928;52.086;5.240;2023-05-22T12:28:51;101271.0;;;25.07;56.27
50652;BME280;66928;52.086;5.240;2023-05-22T12:32:15;101260.0;;;24.98;56.36
50652;BME280;66928;52.086;5.240;2023-05-22T12:33:52;101269.0;;;24.91;55.97
50652;BME280;66928;52.086;5.240;2023-05-22T12:35:28;101269.0;;;25.03;56.73
50652;BME280;66928;52.086;5.240;2023-05-22T12:37:16;101278.0;;;25.05;56.51
50652;BME280;66928;52.086;5.240;2023-05-22T12:38:55;101275.0;;;24.83;56.63
50652;BME280;66928;52.086;5.240;2023-05-22T12:42:09;101270.0;;;24.74;57.16
50652;BME280;66928;52.086;5.240;2023-05-22T12:43:45;101278.0;;;24.87;56.99
50652;BME280;66928;52.086;5.240;2023-05-22T12:45:21;101274.0;;;24.92;56.51
50652;BME280;66928;52.086;5.240;2023-05-22T12:48:34;101276.0;;;25.14;56.44
50652;BME280;66928;52.086;5.240;2023-05-22T12:50:10;101274.0;;;24.77;58.1
50652;BME280;66928;52.086;5.240;2023-05-22T12:51:46;101268.0;;;24.71;58.93
50652;BME280;66928;52.086;5.240;2023-05-22T12:54:58;101268.0;;;25.04;58.24
50652;BME280;66928;52.086;5.240;2023-05-22T12:56:35;101280.0;;;24.94;57.48
50652;BME280;66928;52.086;5.240;2023-05-22T12:58:11;101277.0;;;24.78;57.59
50652;BME280;66928;52.086;5.240;2023-05-22T12:59:47;101283.0;;;24.39;57.12
50652;BME280;66928;52.086;5.240;2023-05-22T13:03:00;101271.0;;;24.55;56.9
50652;BME280;66928;52.086;5.240;2023-05-22T13:04:36;101273.0;;;24.5;55.36
50652;BME280;66928;52.086;5.240;2023-05-22T13:06:13;101280.0;;;24.51;55.22
50652;BME280;66928;52.086;5.240;2023-05-22T13:09:25;101278.0;;;24.23;54.96
50652;BME280;66928;52.086;5.240;2023-05-22T13:11:01;101278.0;;;24.25;54.91
50652;BME280;66928;52.086;5.240;2023-05-22T13:12:37;101277.0;;;24.3;53.63
50652;BME280;66928;52.086;5.240;2023-05-22T13:15:50;101278.0;;;24.41;53.22
50652;BME280;66928;52.086;5.240;2023-05-22T13:17:26;101305.0;;;24.64;51.47
50652;BME280;66928;52.086;5.240;2023-05-22T13:19:03;101295.0;;;24.51;52.3
50652;BME280;66928;52.086;5.240;2023-05-22T13:22:16;101301.0;;;24.2;54.11
50652;BME280;66928;52.086;5.240;2023-05-22T13:23:52;101291.0;;;23.91;57.02
50652;BME280;66928;52.086;5.240;2023-05-22T13:25:28;101286.0;;;24.13;59.55
50652;BME280;66928;52.086;5.240;2023-05-22T13:27:04;101285.0;;;24.16;59.98
50652;BME280;66928;52.086;5.240;2023-05-22T13:30:18;101293.0;;;23.94;61.49
50652;BME280;66928;52.086;5.240;2023-05-22T13:31:54;101297.0;;;23.71;61.29
50652;BME280;66928;52.086;5.240;2023-05-22T13:33:30;101303.0;;;23.52;61.67
50652;BME280;66928;52.086;5.240;2023-05-22T13:36:43;101292.0;;;23.33;62.14
50652;BME280;66928;52.086;5.240;2023-05-22T13:38:19;101292.0;;;23.42;61.8
50652;BME280;66928;52.086;5.240;2023-05-22T13:39:56;101292.0;;;23.24;61.42
50652;BME280;66928;52.086;5.240;2023-05-22T13:43:08;101287.0;;;23.38;61.3
50652;BME280;66928;52.086;5.240;2023-05-22T13:44:44;101292.0;;;23.4;61.1
50652;BME280;66928;52.086;5.240;2023-05-22T13:46:21;101303.0;;;23.31;60.4
50652;BME280;66928;52.086;5.240;2023-05-22T13:47:57;101292.0;;;23.47;59.26
50652;BME280;66928;52.086;5.240;2023-05-22T13:51:09;101296.0;;;23.52;58.98
50652;BME280;66928;52.086;5.240;2023-05-22T13:52:45;101298.0;;;23.86;57.51
50652;BME280;66928;52.086;5.240;2023-05-22T13:54:21;101300.0;;;23.42;56.58
50652;BME280;66928;52.086;5.240;2023-05-22T13:57:34;101294.0;;;23.56;55.49
50652;BME280;66928;52.086;5.240;2023-05-22T13:59:10;101294.0;;;23.61;55.57
50652;BME280;66928;52.086;5.240;2023-05-22T14:00:46;101295.0;;;23.49;55.61
50652;BME280;66928;52.086;5.240;2023-05-22T14:03:58;101319.0;;;23.65;54.95
50652;BME280;66928;52.086;5.240;2023-05-22T14:05:34;101319.0;;;23.87;53.85
50652;BME280;66928;52.086;5.240;2023-05-22T14:07:12;101310.0;;;23.84;53.51
50652;BME280;66928;52.086;5.240;2023-05-22T14:08:48;101305.0;;;23.74;55.07
50652;BME280;66928;52.086;5.240;2023-05-22T14:12:00;101323.0;;;23.93;55.58
50652;BME280;66928;52.086;5.240;2023-05-22T14:13:36;101332.0;;;23.52;57.54
50652;BME280;66928;52.086;5.240;2023-05-22T14:18:25;101323.0;;;23.71;57.57
50652;BME280;66928;52.086;5.240;2023-05-22T14:20:01;101316.0;;;23.69;58.0
50652;BME280;66928;52.086;5.240;2023-05-22T14:21:37;101319.0;;;23.65;58.57
50652;BME280;66928;52.086;5.240;2023-05-22T14:24:50;101341.0;;;23.87;57.48
50652;BME280;66928;52.086;5.240;2023-05-22T14:26:26;101311.0;;;23.47;58.76
50652;BME280;66928;52.086;5.240;2023-05-22T14:28:03;101324.0;;;23.62;58.43
50652;BME280;66928;52.086;5.240;2023-05-22T14:31:16;101338.0;;;23.47;59.15
50652;BME280;66928;52.086;5.240;2023-05-22T14:32:52;101343.0;;;23.34;58.92
50652;BME280;66928;52.086;5.240;2023-05-22T14:34:28;101330.0;;;23.31;59.38
50652;BME280;66928;52.086;5.240;2023-05-22T14:36:04;101345.0;;;23.35;59.75
50652;BME280;66928;52.086;5.240;2023-05-22T14:39:17;101341.0;;;23.26;60.12
50652;BME280;66928;52.086;5.240;2023-05-22T14:40:53;101335.0;;;23.34;60.17
50652;BME280;66928;52.086;5.240;2023-05-22T14:42:29;101335.0;;;23.34;60.3
50652;BME280;66928;52.086;5.240;2023-05-22T14:45:42;101340.0;;;23.33;60.86
50652;BME280;66928;52.086;5.240;2023-05-22T14:47:18;101346.0;;;23.28;60.82
50652;BME280;66928;52.086;5.240;2023-05-22T14:48:55;101345.0;;;23.11;61.92
50652;BME280;66928;52.086;5.240;2023-05-22T14:52:07;101363.0;;;23.01;62.42
50652;BME280;66928;52.086;5.240;2023-05-22T14:53:43;101367.0;;;22.83;63.12
50652;BME280;66928;52.086;5.240;2023-05-22T14:55:20;101361.0;;;22.67;63.57
50652;BME280;66928;52.086;5.240;2023-05-22T14:56:57;101355.0;;;22.63;63.73
50652;BME280;66928;52.086;5.240;2023-05-22T15:00:10;101373.0;;;22.58;63.35
50652;BME280;66928;52.086;5.240;2023-05-22T15:01:46;101355.0;;;22.57;63.51
50652;BME280;66928;52.086;5.240;2023-05-22T15:03:22;101368.0;;;22.47;63.76
50652;BME280;66928;52.086;5.240;2023-05-22T15:06:35;101364.0;;;22.36;64.05
50652;BME280;66928;52.086;5.240;2023-05-22T15:08:11;101370.0;;;22.48;63.68
50652;BME280;66928;52.086;5.240;2023-05-22T15:09:47;101346.0;;;22.32;63.26
50652;BME280;66928;52.086;5.240;2023-05-22T15:12:59;101355.0;;;22.44;61.78
50652;BME280;66928;52.086;5.240;2023-05-22T15:14:36;101357.0;;;22.43;61.7
50652;BME280;66928;52.086;5.240;2023-05-22T15:16:12;101360.0;;;22.54;61.37
50652;BME280;66928;52.086;5.240;2023-05-22T15:19:24;101356.0;;;22.57;60.93
50652;BME280;66928;52.086;5.240;2023-05-22T15:21:01;101352.0;;;22.72;60.28
50652;BME280;66928;52.086;5.240;2023-05-22T15:22:37;101368.0;;;22.49;58.26
50652;BME280;66928;52.086;5.240;2023-05-22T15:24:13;101369.0;;;22.75;58.65
50652;BME280;66928;52.086;5.240;2023-05-22T15:27:27;101370.0;;;22.77;58.89
50652;BME280;66928;52.086;5.240;2023-05-22T15:29:03;101374.0;;;22.74;58.91
50652;BME280;66928;52.086;5.240;2023-05-22T15:30:40;101371.0;;;22.55;59.42
50652;BME280;66928;52.086;5.240;2023-05-22T15:33:52;101380.0;;;22.64;59.62
50652;BME280;66928;52.086;5.240;2023-05-22T15:35:28;101380.0;;;22.68;59.91
50652;BME280;66928;52.086;5.240;2023-05-22T15:37:04;101412.0;;;22.68;59.07
50652;BME280;66928;52.086;5.240;2023-05-22T15:40:17;101397.0;;;22.48;59.58
50652;BME280;66928;52.086;5.240;2023-05-22T15:41:53;101408.0;;;22.4;60.32
50652;BME280;66928;52.086;5.240;2023-05-22T15:43:29;101407.0;;;22.46;58.68
50652;BME280;66928;52.086;5.240;2023-05-22T15:45:07;101391.0;;;22.46;59.7
50652;BME280;66928;52.086;5.240;2023-05-22T15:48:20;101403.0;;;22.45;59.29
50652;BME280;66928;52.086;5.240;2023-05-22T15:49:56;101390.0;;;22.58;59.11
50652;BME280;66928;52.086;5.240;2023-05-22T15:51:32;101416.0;;;22.5;59.89
50652;BME280;66928;52.086;5.240;2023-05-22T15:54:45;101393.0;;;22.62;59.24
50652;BME280;66928;52.086;5.240;2023-05-22T15:56:21;101407.0;;;22.43;59.29
50652;BME280;66928;52.086;5.240;2023-05-22T15:57:58;101406.0;;;22.49;59.49
50652;BME280;66928;52.086;5.240;2023-05-22T16:01:12;101393.0;;;22.39;59.51
50652;BME280;66928;52.086;5.240;2023-05-22T16:02:48;101395.0;;;22.54;58.9
50652;BME280;66928;52.086;5.240;2023-05-22T16:04:25;101405.0;;;22.61;58.74
50652;BME280;66928;52.086;5.240;2023-05-22T16:06:02;101395.0;;;22.56;59.04
50652;BME280;66928;52.086;5.240;2023-05-22T16:09:15;101393.0;;;22.6;58.91
50652;BME280;66928;52.086;5.240;2023-05-22T16:10:52;101405.0;;;22.37;58.84
50652;BME280;66928;52.086;5.240;2023-05-22T16:12:28;101405.0;;;22.31;58.93
50652;BME280;66928;52.086;5.240;2023-05-22T16:15:42;101390.0;;;22.32;59.0
50652;BME280;66928;52.086;5.240;2023-05-22T16:17:18;101390.0;;;22.4;58.86
50652;BME280;66928;52.086;5.240;2023-05-22T16:18:54;101406.0;;;22.5;57.94
50652;BME280;66928;52.086;5.240;2023-05-22T16:22:07;101392.0;;;22.19;58.53
50652;BME280;66928;52.086;5.240;2023-05-22T16:23:43;101398.0;;;22.34;58.24
50652;BME280;66928;52.086;5.240;2023-05-22T16:25:20;101402.0;;;22.47;58.09
50652;BME280;66928;52.086;5.240;2023-05-22T16:26:57;101380.0;;;22.66;57.35
50652;BME280;66928;52.086;5.240;2023-05-22T16:30:10;101384.0;;;22.59;57.5
50652;BME280;66928;52.086;5.240;2023-05-22T16:31:46;101397.0;;;22.68;57.33
50652;BME280;66928;52.086;5.240;2023-05-22T16:33:22;101390.0;;;22.57;57.77
50652;BME280;66928;52.086;5.240;2023-05-22T16:36:34;101399.0;;;22.74;57.18
50652;BME280;66928;52.086;5.240;2023-05-22T16:38:11;101397.0;;;22.58;57.54
50652;BME280;66928;52.086;5.240;2023-05-22T16:39:48;101405.0;;;22.39;57.43
50652;BME280;66928;52.086;5.240;2023-05-22T16:43:00;101407.0;;;22.29;57.75
50652;BME280;66928;52.086;5.240;2023-05-22T16:44:36;101401.0;;;22.68;56.5
50652;BME280;66928;52.086;5.240;2023-05-22T16:46:12;101399.0;;;22.56;56.33
50652;BME280;66928;52.086;5.240;2023-05-22T16:47:49;101414.0;;;22.54;56.51
50652;BME280;66928;52.086;5.240;2023-05-22T16:51:01;101403.0;;;22.42;57.15